Time;durP1;ratioP1;P1;durP2;ratioP2;P2;SDS_P1;SDS_P2;PMS_P1;PMS_P2;Temp;Humidity;BMP_temperature;BMP_pressure;BME280_temperature;BME280_humidity;BME280_pressure;Samples;Min_cycle;Max_cycle;Signal;HPM_P1;HPM_P2
2022/07/12 00:01:08;;;;;;;6.05;3.42;;;;;;;14.74;100.00;102420.75;5248931;28;20047;-68
2022/07/12 00:03:38;;;;;;;9.68;5.25;;;;;;;14.65;100.00;102410.84;5248916;28;20553;-68
2022/07/12 00:06:09;;;;;;;12.02;6.70;;;;;;;14.60;100.00;102404.22;5262447;28;20028;-68
2022/07/12 00:08:39;;;;;;;10.20;6.60;;;;;;;14.54;100.00;102402.16;5262077;28;20070;-69
2022/07/12 00:11:11;;;;;;;10.70;6.00;;;;;;;14.45;100.00;102407.44;5263130;28;20028;-69
2022/07/12 00:13:41;;;;;;;11.82;5.68;;;;;;;14.40;100.00;102409.75;5248245;28;20024;-68
2022/07/12 00:16:12;;;;;;;62.70;4.80;;;;;;;14.37;100.00;102404.66;5248864;28;20039;-68
2022/07/12 00:18:42;;;;;;;4.65;2.28;;;;;;;14.31;100.00;102399.00;5250677;28;20523;-69
2022/07/12 00:21:13;;;;;;;5.95;3.70;;;;;;;14.24;100.00;102391.53;5262320;28;20024;-68
2022/07/12 00:23:43;;;;;;;7.65;3.33;;;;;;;14.19;100.00;102401.94;5249656;28;20561;-68
2022/07/12 00:26:14;;;;;;;3.53;2.53;;;;;;;14.16;100.00;102394.16;5258719;28;20030;-69
2022/07/12 00:28:45;;;;;;;5.63;4.00;;;;;;;14.11;100.00;102391.06;5251460;28;20481;-69
2022/07/12 00:31:16;;;;;;;9.18;5.05;;;;;;;14.11;100.00;102392.94;5260744;28;20022;-68
2022/07/12 00:33:46;;;;;;;7.15;3.42;;;;;;;14.09;100.00;102386.81;5249672;28;20016;-68
2022/07/12 00:36:17;;;;;;;2.90;2.22;;;;;;;14.03;100.00;102382.03;5248135;28;20028;-69
2022/07/12 00:38:47;;;;;;;8.85;3.20;;;;;;;13.96;100.00;102377.25;5248831;28;20103;-69
2022/07/12 00:41:19;;;;;;;7.50;4.72;;;;;;;13.92;100.00;102377.69;5248443;28;20363;-69
2022/07/12 00:43:49;;;;;;;10.77;5.68;;;;;;;13.89;100.00;102375.28;5257320;28;20028;-69
2022/07/12 00:46:22;;;;;;;8.95;4.75;;;;;;;13.84;100.00;102375.75;5252467;28;20040;-68
2022/07/12 00:48:54;;;;;;;12.20;4.97;;;;;;;13.78;100.00;102365.56;5258531;28;20020;-69
2022/07/12 00:51:25;;;;;;;5.95;2.92;;;;;;;13.71;100.00;102372.56;5255438;28;20023;-68
2022/07/12 00:53:58;;;;;;;6.13;4.28;;;;;;;13.64;100.00;102363.34;5268923;28;20020;-69
2022/07/12 00:56:29;;;;;;;3.50;2.65;;;;;;;13.59;100.00;102366.50;5248672;28;20448;-68
2022/07/12 00:58:59;;;;;;;4.90;3.65;;;;;;;13.59;100.00;102371.91;5248117;28;20020;-69
2022/07/12 01:01:30;;;;;;;2.80;2.03;;;;;;;13.61;100.00;102375.31;5268524;28;20038;-68
2022/07/12 01:04:01;;;;;;;4.53;3.35;;;;;;;13.58;100.00;102377.44;5240168;28;20418;-68
2022/07/12 01:06:32;;;;;;;7.97;4.75;;;;;;;13.53;100.00;102377.88;5248125;28;20299;-68
2022/07/12 01:09:03;;;;;;;8.90;4.45;;;;;;;13.50;100.00;102377.31;5261561;28;20028;-68
2022/07/12 01:11:34;;;;;;;5.80;3.95;;;;;;;13.44;100.00;102368.84;5258251;28;20070;-68
2022/07/12 01:14:05;;;;;;;4.95;3.30;;;;;;;13.40;100.00;102366.56;5249196;28;20086;-68
2022/07/12 01:16:37;;;;;;;5.88;4.45;;;;;;;13.35;100.00;102372.41;5247967;28;20044;-68
2022/07/12 01:19:10;;;;;;;6.55;4.80;;;;;;;13.30;100.00;102365.75;5261392;28;20103;-68
2022/07/12 01:21:44;;;;;;;6.53;4.50;;;;;;;13.26;100.00;102372.47;5258314;28;20051;-68
2022/07/12 01:24:15;;;;;;;4.38;3.08;;;;;;;13.20;100.00;102363.94;5247131;28;20028;-68
2022/07/12 01:26:47;;;;;;;2.70;2.45;;;;;;;13.16;100.00;102362.53;5260962;28;20032;-68
2022/07/12 01:29:17;;;;;;;5.82;2.53;;;;;;;13.13;100.00;102362.81;5247252;28;20063;-68
2022/07/12 01:31:48;;;;;;;1.92;1.40;;;;;;;13.10;100.00;102360.44;5263768;28;20055;-68
2022/07/12 01:34:20;;;;;;;2.47;2.13;;;;;;;13.08;100.00;102365.09;5258167;28;20446;-68
2022/07/12 01:36:51;;;;;;;3.92;2.72;;;;;;;13.08;100.00;102351.63;5260754;28;20052;-69
2022/07/12 01:39:22;;;;;;;3.53;2.40;;;;;;;13.08;100.00;102353.47;5247237;28;20030;-68
2022/07/12 01:41:53;;;;;;;4.18;3.13;;;;;;;13.07;100.00;102354.47;5252352;28;20024;-68
2022/07/12 01:44:24;;;;;;;5.70;3.38;;;;;;;13.05;100.00;102357.31;5255193;28;20044;-68
2022/07/12 01:46:54;;;;;;;5.03;2.70;;;;;;;13.01;100.00;102350.53;5260702;28;20020;-69
2022/07/12 01:49:25;;;;;;;3.95;2.45;;;;;;;12.98;100.00;102353.50;5260587;28;20478;-68
2022/07/12 01:51:57;;;;;;;7.55;3.67;;;;;;;12.94;100.00;102344.00;5247037;28;20033;-68
2022/07/12 01:54:28;;;;;;;233.57;9.50;;;;;;;12.88;100.00;102348.13;5260453;28;20620;-68
2022/07/12 01:56:59;;;;;;;92.70;6.05;;;;;;;12.79;100.00;102340.91;5246725;28;20029;-68
2022/07/12 01:59:30;;;;;;;8.52;3.53;;;;;;;12.72;100.00;102342.50;5263654;28;20036;-68
2022/07/12 02:02:03;;;;;;;7.40;2.95;;;;;;;12.67;100.00;102347.47;5267238;28;20032;-68
2022/07/12 02:04:34;;;;;;;5.35;3.03;;;;;;;12.64;100.00;102347.72;5234227;28;20021;-69
2022/07/12 02:07:05;;;;;;;4.05;2.97;;;;;;;12.62;100.00;102355.97;5246109;28;20036;-68
2022/07/12 02:09:36;;;;;;;4.25;2.83;;;;;;;12.60;100.00;102359.78;5246733;28;20032;-69
2022/07/12 02:12:07;;;;;;;3.25;2.28;;;;;;;12.59;100.00;102366.16;5246407;28;20086;-68
2022/07/12 02:14:37;;;;;;;3.63;2.58;;;;;;;12.59;100.00;102361.63;5255320;28;20042;-68
2022/07/12 02:17:08;;;;;;;3.58;3.05;;;;;;;12.59;100.00;102356.22;5267432;28;20020;-68
2022/07/12 02:19:38;;;;;;;5.88;3.40;;;;;;;12.60;100.00;102357.97;5256958;28;20020;-68
2022/07/12 02:22:09;;;;;;;4.35;3.10;;;;;;;12.61;100.00;102354.28;5250336;28;20477;-69
2022/07/12 02:24:39;;;;;;;4.88;3.08;;;;;;;12.62;100.00;102355.13;5255360;28;20032;-68
2022/07/12 02:27:10;;;;;;;6.22;3.00;;;;;;;12.59;100.00;102353.53;5245993;28;20427;-68
2022/07/12 02:29:41;;;;;;;11.02;3.95;;;;;;;12.59;100.00;102360.78;5259119;28;20031;-68
2022/07/12 02:32:13;;;;;;;5.53;3.55;;;;;;;12.57;100.00;102357.38;5260345;28;20040;-68
2022/07/12 02:34:44;;;;;;;3.95;2.75;;;;;;;12.54;100.00;102365.75;5246113;28;20027;-69
2022/07/12 02:37:14;;;;;;;5.75;3.70;;;;;;;12.49;100.00;102354.53;5245912;28;20024;-68
2022/07/12 02:39:45;;;;;;;4.40;3.15;;;;;;;12.46;100.00;102362.91;5245982;28;20378;-69
2022/07/12 02:42:15;;;;;;;5.38;3.30;;;;;;;12.42;100.00;102362.34;5255650;28;20039;-69
2022/07/12 02:44:46;;;;;;;3.85;2.80;;;;;;;12.40;100.00;102367.03;5266934;28;20060;-68
2022/07/12 02:47:16;;;;;;;5.15;2.75;;;;;;;12.35;100.00;102362.06;5258447;28;20032;-69
2022/07/12 02:49:47;;;;;;;4.78;2.90;;;;;;;12.31;100.00;102365.19;5245570;28;20025;-69
2022/07/12 02:52:17;;;;;;;4.20;2.55;;;;;;;12.25;100.00;102371.09;5245651;28;20069;-68
2022/07/12 02:54:48;;;;;;;4.93;3.28;;;;;;;12.19;100.00;102370.66;5259072;28;20016;-68
2022/07/12 02:57:18;;;;;;;2.90;2.60;;;;;;;12.15;100.00;102376.50;5259177;28;20052;-68
2022/07/12 02:59:49;;;;;;;4.07;2.95;;;;;;;12.11;100.00;102373.22;5245925;28;20033;-69
2022/07/12 03:02:20;;;;;;;4.53;2.83;;;;;;;12.07;100.00;102376.34;5244341;28;20024;-68
2022/07/12 03:04:50;;;;;;;7.20;3.20;;;;;;;12.03;100.00;102374.91;5241213;28;20595;-69
2022/07/12 03:07:22;;;;;;;4.03;2.47;;;;;;;12.01;100.00;102371.50;5250632;28;20131;-69
2022/07/12 03:09:52;;;;;;;3.80;2.80;;;;;;;11.99;100.00;102370.78;5245836;28;20031;-68
2022/07/12 03:12:24;;;;;;;7.47;3.03;;;;;;;11.99;100.00;102368.94;5259144;28;20389;-69
2022/07/12 03:14:54;;;;;;;5.47;3.00;;;;;;;12.01;100.00;102360.75;5245194;28;20028;-69
2022/07/12 03:17:25;;;;;;;6.18;3.00;;;;;;;12.01;100.00;102361.59;5249045;28;20069;-68
2022/07/12 03:19:55;;;;;;;4.90;2.88;;;;;;;11.98;100.00;102356.50;5253482;28;20016;-68
2022/07/12 03:22:26;;;;;;;4.20;3.08;;;;;;;11.95;100.00;102353.22;5262304;28;20100;-68
2022/07/12 03:24:56;;;;;;;3.83;2.80;;;;;;;11.92;100.00;102365.97;5252826;28;20020;-68
2022/07/12 03:27:27;;;;;;;3.67;2.65;;;;;;;11.90;100.00;102356.34;5244943;28;20025;-68
2022/07/12 03:29:57;;;;;;;3.25;2.55;;;;;;;11.89;100.00;102358.16;5245274;28;20024;-68
2022/07/12 03:32:28;;;;;;;10.68;3.63;;;;;;;11.90;100.00;102364.41;5245723;28;20470;-68
2022/07/12 03:34:58;;;;;;;6.68;4.03;;;;;;;11.93;100.00;102361.44;5261365;28;20031;-68
2022/07/12 03:37:49;;;;;;;5.80;3.60;;;;;;;11.94;100.00;102379.25;5256492;28;20024;-68
2022/07/12 03:40:21;;;;;;;5.25;3.35;;;;;;;11.92;100.00;102382.09;5245493;28;20446;-68
2022/07/12 03:42:52;;;;;;;6.28;4.07;;;;;;;11.92;100.00;102378.56;5245370;28;20112;-68
2022/07/12 03:45:22;;;;;;;6.10;3.30;;;;;;;11.88;100.00;102383.34;5245296;28;20039;-69
2022/07/12 03:47:53;;;;;;;5.20;3.85;;;;;;;11.84;100.00;102379.22;5245174;28;20299;-68
2022/07/12 03:50:23;;;;;;;8.02;3.72;;;;;;;11.80;100.00;102372.44;5254439;28;20497;-68
2022/07/12 03:52:54;;;;;;;9.75;4.60;;;;;;;11.79;100.00;102384.13;5252476;28;20469;-68
2022/07/12 03:55:25;;;;;;;6.43;4.38;;;;;;;11.78;100.00;102379.75;5255378;28;20050;-68
2022/07/12 03:57:55;;;;;;;4.32;3.17;;;;;;;11.78;100.00;102386.97;5249545;28;20503;-68
2022/07/12 04:00:26;;;;;;;8.70;3.47;;;;;;;11.76;100.00;102387.13;5254178;28;20094;-68
2022/07/12 04:02:56;;;;;;;7.57;3.42;;;;;;;11.77;100.00;102391.50;5257927;28;20017;-68
2022/07/12 04:05:27;;;;;;;6.15;2.70;;;;;;;11.76;100.00;102389.81;5258396;28;20142;-68
2022/07/12 04:07:57;;;;;;;5.18;2.60;;;;;;;11.75;100.00;102389.97;5245222;28;20025;-68
2022/07/12 04:10:28;;;;;;;6.63;3.17;;;;;;;11.76;100.00;102386.28;5244987;28;20024;-68
2022/07/12 04:12:59;;;;;;;6.32;2.67;;;;;;;11.77;100.00;102393.34;5253237;28;20550;-68
2022/07/12 04:15:29;;;;;;;4.35;3.58;;;;;;;11.81;100.00;102397.47;5251864;28;20035;-68
2022/07/12 04:18:00;;;;;;;5.35;2.72;;;;;;;11.83;100.00;102392.81;5256257;28;20024;-69
2022/07/12 04:20:30;;;;;;;8.38;3.08;;;;;;;11.84;100.00;102390.00;5244741;28;20100;-69
2022/07/12 04:23:01;;;;;;;11.18;3.47;;;;;;;11.86;100.00;102387.19;5244754;28;20466;-69
2022/07/12 04:25:31;;;;;;;6.85;3.28;;;;;;;11.92;100.00;102394.69;5244454;28;20506;-69
2022/07/12 04:28:02;;;;;;;4.00;3.00;;;;;;;11.98;100.00;102402.22;5244549;28;20017;-69
2022/07/12 04:30:33;;;;;;;3.88;2.72;;;;;;;12.06;100.00;102397.00;5251843;28;20405;-69
2022/07/12 04:33:03;;;;;;;10.05;2.95;;;;;;;12.15;100.00;102406.09;5256110;28;20013;-69
2022/07/12 04:35:34;;;;;;;3.47;2.70;;;;;;;12.25;100.00;102403.38;5261897;28;20113;-69
2022/07/12 04:38:04;;;;;;;5.75;3.75;;;;;;;12.33;100.00;102406.25;5248080;28;20535;-69
2022/07/12 04:40:35;;;;;;;9.90;6.47;;;;;;;12.43;100.00;102409.78;5248286;28;20024;-69
2022/07/12 04:43:05;;;;;;;13.23;7.72;;;;;;;12.57;100.00;102411.22;5250287;28;20039;-69
2022/07/12 04:45:36;;;;;;;16.73;7.40;;;;;;;12.69;100.00;102410.09;5268985;28;20020;-69
2022/07/12 04:48:06;;;;;;;13.43;7.75;;;;;;;12.82;100.00;102407.97;5240540;28;20040;-69
2022/07/12 04:50:37;;;;;;;16.48;7.80;;;;;;;12.96;100.00;102412.91;5248085;28;20035;-68
2022/07/12 04:53:08;;;;;;;15.15;6.78;;;;;;;13.09;100.00;102409.06;5247948;28;20085;-69
2022/07/12 04:55:39;;;;;;;17.05;6.25;;;;;;;13.22;100.00;102412.31;5247643;28;20021;-69
2022/07/12 04:58:09;;;;;;;15.07;7.55;;;;;;;13.38;100.00;102406.31;5248298;28;20036;-69
2022/07/12 05:00:40;;;;;;;16.02;8.73;;;;;;;13.55;100.00;102408.22;5248017;28;20108;-69
2022/07/12 05:03:10;;;;;;;14.30;8.95;;;;;;;13.71;100.00;102407.63;5252162;28;20033;-68
2022/07/12 05:05:41;;;;;;;18.08;9.65;;;;;;;13.88;100.00;102408.66;5244276;28;20028;-69
2022/07/12 05:08:11;;;;;;;17.08;10.35;;;;;;;14.08;100.00;102401.31;5259464;28;20025;-69
2022/07/12 05:10:42;;;;;;;18.52;10.55;;;;;;;14.28;100.00;102405.59;5251207;28;20121;-69
2022/07/12 05:13:12;;;;;;;18.35;9.85;;;;;;;14.48;100.00;102400.91;5258087;28;20389;-69
2022/07/12 05:15:42;;;;;;;18.90;10.77;;;;;;;14.67;100.00;102410.72;5247120;28;20169;-69
2022/07/12 05:18:13;;;;;;;16.85;10.48;;;;;;;14.86;100.00;102409.69;5247733;28;20017;-69
2022/07/12 05:20:43;;;;;;;19.30;10.98;;;;;;;15.02;100.00;102416.09;5247446;28;20030;-69
2022/07/12 05:23:14;;;;;;;28.88;11.35;;;;;;;15.18;100.00;102428.88;5260493;28;20035;-69
2022/07/12 05:25:45;;;;;;;21.42;10.73;;;;;;;15.31;100.00;102430.28;5268581;28;20469;-69
2022/07/12 05:28:16;;;;;;;23.08;10.98;;;;;;;15.42;100.00;102436.31;5253319;28;20040;-69
2022/07/12 05:30:46;;;;;;;15.40;9.70;;;;;;;15.54;100.00;102434.16;5255515;28;20024;-69
2022/07/12 05:33:17;;;;;;;20.55;10.27;;;;;;;15.66;100.00;102432.06;5252617;28;20493;-69
2022/07/12 05:35:47;;;;;;;18.48;11.23;;;;;;;15.77;100.00;102443.47;5247258;28;20028;-69
2022/07/12 05:38:18;;;;;;;19.38;9.98;;;;;;;15.90;100.00;102442.16;5263879;28;20408;-69
2022/07/12 05:40:48;;;;;;;20.27;10.73;;;;;;;16.01;100.00;102444.56;5257198;28;20028;-69
2022/07/12 05:43:19;;;;;;;17.80;10.35;;;;;;;16.16;100.00;102447.50;5245927;28;20029;-69
2022/07/12 05:45:49;;;;;;;17.73;9.32;;;;;;;16.32;100.00;102452.97;5259511;28;20028;-69
2022/07/12 05:48:20;;;;;;;14.85;9.43;;;;;;;16.51;100.00;102455.38;5254449;28;20381;-70
2022/07/12 05:50:50;;;;;;;21.35;9.88;;;;;;;16.59;100.00;102449.13;5268023;28;20019;-69
2022/07/12 05:53:22;;;;;;;17.33;10.18;;;;;;;16.72;100.00;102460.38;5233605;28;20481;-69
2022/07/12 05:55:54;;;;;;;19.88;9.65;;;;;;;16.91;100.00;102464.59;5255330;28;20095;-69
2022/07/12 05:58:25;;;;;;;15.07;9.10;;;;;;;17.06;100.00;102462.06;5246794;28;20035;-69
2022/07/12 06:00:55;;;;;;;15.70;10.02;;;;;;;17.16;100.00;102462.72;5249541;28;20032;-70
2022/07/12 06:03:26;;;;;;;15.02;9.43;;;;;;;17.43;100.00;102452.53;5247711;28;20029;-70
2022/07/12 06:05:56;;;;;;;13.25;9.07;;;;;;;17.77;100.00;102455.88;5242920;28;20020;-69
2022/07/12 06:08:27;;;;;;;10.95;7.70;;;;;;;18.29;100.00;102458.00;5257851;28;20445;-69
2022/07/12 06:10:59;;;;;;;13.90;8.40;;;;;;;19.08;100.00;102455.13;5262267;28;20031;-70
2022/07/12 06:13:29;;;;;;;11.05;8.10;;;;;;;19.72;100.00;102452.78;5246360;28;20020;-69
2022/07/12 06:16:00;;;;;;;11.65;7.70;;;;;;;20.20;100.00;102450.47;5266016;28;20027;-70
2022/07/12 06:18:30;;;;;;;13.02;7.68;;;;;;;20.78;100.00;102458.69;5253348;28;20020;-69
2022/07/12 06:21:01;;;;;;;11.68;7.80;;;;;;;21.19;100.00;102451.50;5246323;28;20012;-70
2022/07/12 06:23:31;;;;;;;11.10;7.40;;;;;;;21.77;100.00;102451.28;5245916;28;20474;-70
2022/07/12 06:26:02;;;;;;;11.27;7.07;;;;;;;22.27;100.00;102459.31;5246083;28;20363;-70
2022/07/12 06:28:32;;;;;;;8.70;6.72;;;;;;;22.41;100.00;102459.16;5245613;28;20024;-70
2022/07/12 06:31:03;;;;;;;10.98;6.72;;;;;;;22.47;100.00;102461.06;5256682;28;20111;-70
2022/07/12 06:33:34;;;;;;;11.38;7.00;;;;;;;22.42;100.00;102462.72;5249380;28;20029;-70
2022/07/12 06:36:04;;;;;;;9.88;6.65;;;;;;;22.55;100.00;102461.94;5246005;28;20067;-70
2022/07/12 06:38:35;;;;;;;12.82;6.65;;;;;;;23.02;100.00;102455.50;5263946;28;20073;-70
2022/07/12 06:41:05;;;;;;;8.57;6.18;;;;;;;23.19;100.00;102461.38;5253509;28;20102;-70
2022/07/12 06:43:36;;;;;;;9.85;6.90;;;;;;;23.27;100.00;102458.44;5252619;28;20016;-70
2022/07/12 06:46:06;;;;;;;12.52;6.82;;;;;;;23.30;100.00;102454.44;5253351;28;20012;-70
2022/07/12 06:48:37;;;;;;;11.32;7.15;;;;;;;23.46;100.00;102460.31;5255510;28;20123;-70
2022/07/12 06:51:07;;;;;;;14.50;7.47;;;;;;;23.35;100.00;102451.91;5266956;28;20028;-71
2022/07/12 06:53:38;;;;;;;10.15;6.85;;;;;;;23.52;100.00;102458.63;5266045;28;20016;-70
2022/07/12 06:56:08;;;;;;;9.63;7.25;;;;;;;23.63;100.00;102459.84;5248491;28;20018;-70
2022/07/12 06:58:39;;;;;;;8.95;7.13;;;;;;;23.36;100.00;102457.16;5256294;28;20021;-70
2022/07/12 07:01:10;;;;;;;13.23;8.27;;;;;;;23.33;100.00;102467.69;5252939;28;20077;-70
2022/07/12 07:03:40;;;;;;;11.80;7.63;;;;;;;23.16;100.00;102464.56;5249007;28;20838;-70
2022/07/12 07:06:11;;;;;;;10.18;7.50;;;;;;;23.15;100.00;102466.47;5249999;28;20417;-70
2022/07/12 07:08:42;;;;;;;10.23;7.30;;;;;;;23.42;100.00;102470.00;5252820;28;20067;-70
2022/07/12 07:11:13;;;;;;;11.27;7.53;;;;;;;23.67;100.00;102462.00;5232224;28;20028;-70
2022/07/12 07:13:43;;;;;;;9.90;7.00;;;;;;;24.35;100.00;102471.63;5246526;28;20039;-70
2022/07/12 07:16:14;;;;;;;10.10;6.80;;;;;;;24.53;100.00;102472.63;5257360;28;20107;-70
2022/07/12 07:18:44;;;;;;;10.77;6.50;;;;;;;25.04;100.00;102465.31;5247881;28;20093;-71
2022/07/12 07:21:15;;;;;;;11.93;7.07;;;;;;;25.38;100.00;102472.22;5259456;28;20026;-70
2022/07/12 07:23:45;;;;;;;11.88;7.40;;;;;;;24.62;100.00;102470.47;5249965;28;20470;-70
2022/07/12 07:26:16;;;;;;;8.70;7.20;;;;;;;24.78;100.00;102477.31;5254927;28;20100;-70
2022/07/12 07:31:37;;;;;;;8.20;6.88;;;;;;;25.17;100.00;102478.13;5251037;28;20024;-70
2022/07/12 07:34:07;;;;;;;10.80;6.82;;;;;;;25.13;100.00;102474.13;5245371;28;20033;-70
2022/07/12 07:36:38;;;;;;;6.90;6.20;;;;;;;25.61;100.00;102479.00;5245274;28;20023;-70
2022/07/12 07:39:08;;;;;;;6.75;5.88;;;;;;;25.97;100.00;102472.69;5255817;28;20035;-71
2022/07/12 07:41:39;;;;;;;12.00;7.45;;;;;;;25.81;100.00;102474.16;5266052;28;20051;-70
2022/07/12 07:44:09;;;;;;;9.60;7.07;;;;;;;25.83;100.00;102483.00;5254235;28;20025;-70
2022/07/12 07:46:40;;;;;;;9.80;6.75;;;;;;;26.28;100.00;102486.25;5247250;28;20021;-70
2022/07/12 07:49:10;;;;;;;14.63;6.57;;;;;;;26.80;97.71;102483.00;5245262;28;20024;-70
2022/07/12 07:51:41;;;;;;;8.30;6.13;;;;;;;26.63;94.18;102495.75;5258320;28;20404;-71
2022/07/12 07:54:11;;;;;;;9.98;7.10;;;;;;;26.34;96.28;102490.81;5245046;28;20016;-71
2022/07/12 07:56:42;;;;;;;7.13;6.25;;;;;;;26.38;94.92;102488.44;5253089;28;20025;-71
2022/07/12 07:59:12;;;;;;;9.27;7.18;;;;;;;26.00;96.61;102483.22;5246305;28;20028;-71
2022/07/12 08:01:45;;;;;;;7.18;6.45;;;;;;;25.51;100.00;102488.59;5257430;28;20052;-71
2022/07/12 08:04:16;;;;;;;8.77;7.20;;;;;;;25.61;100.00;102482.56;5234901;28;20035;-71
2022/07/12 08:06:48;;;;;;;12.55;6.97;;;;;;;25.85;100.00;102482.75;5269138;28;20035;-70
2022/07/12 08:09:19;;;;;;;7.43;6.40;;;;;;;26.32;99.46;102481.13;5251121;28;20035;-71
2022/07/12 08:11:49;;;;;;;9.07;6.55;;;;;;;26.60;98.16;102475.03;5261219;28;20028;-70
2022/07/12 08:14:20;;;;;;;9.00;6.97;;;;;;;26.61;93.77;102473.97;5255836;28;20397;-71
2022/07/12 08:16:51;;;;;;;8.70;7.35;;;;;;;27.16;91.35;102471.03;5254724;28;20035;-71
2022/07/12 08:19:21;;;;;;;8.40;7.03;;;;;;;27.66;92.15;102473.25;5262043;28;20029;-71
2022/07/12 08:21:52;;;;;;;8.15;6.60;;;;;;;27.83;87.54;102470.66;5248261;28;20024;-71
2022/07/12 08:24:22;;;;;;;12.10;7.13;;;;;;;27.66;88.04;102472.44;5269170;28;20031;-70
2022/07/12 08:26:53;;;;;;;8.05;6.20;;;;;;;27.62;83.85;102475.69;5266702;28;20024;-71
2022/07/12 08:29:23;;;;;;;7.47;6.53;;;;;;;27.34;82.43;102475.56;5257895;28;20485;-71
2022/07/12 08:31:54;;;;;;;7.07;6.35;;;;;;;27.15;85.04;102469.31;5242518;28;20137;-71
2022/07/12 08:34:24;;;;;;;7.80;6.65;;;;;;;26.85;85.94;102461.09;5258279;28;20032;-71
2022/07/12 08:36:55;;;;;;;7.57;5.80;;;;;;;26.71;86.42;102459.63;5253497;28;20102;-71
2022/07/12 08:39:25;;;;;;;7.43;6.20;;;;;;;26.76;85.38;102459.78;5269078;28;20028;-71
2022/07/12 08:41:56;;;;;;;9.57;6.65;;;;;;;26.57;84.09;102459.00;5248827;28;20035;-71
2022/07/12 08:44:26;;;;;;;8.07;6.10;;;;;;;26.87;86.58;102460.88;5248116;28;20071;-71
2022/07/12 08:46:57;;;;;;;7.63;5.97;;;;;;;27.12;84.07;102458.78;5248108;28;20091;-71
2022/07/12 08:49:27;;;;;;;8.60;5.85;;;;;;;27.32;83.45;102452.94;5249242;28;20028;-71
2022/07/12 08:51:58;;;;;;;9.05;6.20;;;;;;;27.55;81.04;102455.66;5268838;28;20099;-71
2022/07/12 08:54:38;;;;;;;10.13;6.38;;;;;;;27.72;83.17;102457.72;5252746;28;20032;-71
2022/07/12 08:57:09;;;;;;;9.48;5.68;;;;;;;27.77;75.02;102455.09;5247964;28;20032;-71
2022/07/12 08:59:39;;;;;;;8.80;6.15;;;;;;;27.63;76.03;102459.97;5261591;28;20027;-71
2022/07/12 09:02:10;;;;;;;10.07;6.72;;;;;;;27.58;74.84;102466.22;5248221;28;20588;-71
2022/07/12 09:04:40;;;;;;;7.63;6.72;;;;;;;27.77;75.99;102463.34;5254284;28;20055;-71
2022/07/12 09:07:26;;;;;;;12.05;6.43;;;;;;;28.21;74.04;102460.94;5255143;28;20078;-71
2022/07/12 09:10:03;;;;;;;7.38;6.00;;;;;;;28.27;71.88;102466.34;5258353;28;20025;-71
2022/07/12 09:12:34;;;;;;;10.02;5.82;;;;;;;28.54;73.10;102466.59;5248109;28;20482;-71
2022/07/12 09:15:17;;;;;;;9.77;6.57;;;;;;;28.54;71.73;102460.22;5247432;28;20024;-71
2022/07/12 09:18:03;;;;;;;8.55;6.07;;;;;;;28.41;72.58;102458.59;5235040;28;20099;-71
2022/07/12 09:20:36;;;;;;;7.20;5.80;;;;;;;28.39;75.50;102458.03;5251692;28;20119;-71
2022/07/12 09:23:09;;;;;;;7.60;5.55;;;;;;;28.50;70.70;102454.34;5253799;28;20017;-71
2022/07/12 09:25:44;;;;;;;9.63;6.32;;;;;;;28.51;74.59;102466.25;5247074;28;20051;-71
2022/07/12 09:28:15;;;;;;;8.60;5.63;;;;;;;28.20;71.72;102456.50;5247360;28;20036;-71
2022/07/12 09:31:04;;;;;;;7.93;5.65;;;;;;;28.02;73.53;102469.41;5247932;28;20026;-71
2022/07/12 09:36:24;;;;;;;6.93;5.95;;;;;;;27.59;76.27;102465.13;5247059;28;20032;-71
2022/07/12 09:41:41;;;;;;;16.75;6.50;;;;;;;28.24;76.89;102457.69;5249841;28;20029;-71
2022/07/12 09:44:12;;;;;;;6.65;5.80;;;;;;;28.93;74.01;102463.13;5246862;28;20064;-71
2022/07/12 09:46:43;;;;;;;8.18;5.28;;;;;;;28.73;68.38;102458.09;5246765;28;20517;-71
2022/07/12 09:49:14;;;;;;;9.38;5.18;;;;;;;28.97;68.85;102462.41;5247018;28;20060;-71
2022/07/12 09:51:45;;;;;;;7.13;5.78;;;;;;;28.52;68.70;102463.25;5246893;28;20536;-71
2022/07/12 09:54:24;;;;;;;7.13;5.38;;;;;;;28.78;70.31;102464.53;5246650;28;20497;-71
2022/07/12 09:56:59;;;;;;;6.63;5.25;;;;;;;28.59;69.98;102457.56;5246351;28;20040;-71
2022/07/12 09:59:32;;;;;;;6.95;5.25;;;;;;;28.84;68.63;102462.69;5246756;28;20064;-71
2022/07/12 10:02:05;;;;;;;5.22;4.70;;;;;;;28.74;67.26;102463.34;5246716;28;20437;-71
2022/07/12 10:04:36;;;;;;;5.85;5.25;;;;;;;28.54;68.87;102461.06;5252365;28;20032;-71
2022/07/12 10:07:08;;;;;;;7.35;5.50;;;;;;;28.59;67.37;102454.81;5253913;28;20538;-71
2022/07/12 10:09:40;;;;;;;8.10;5.22;;;;;;;28.38;69.78;102462.72;5259606;28;20028;-71
2022/07/12 10:12:15;;;;;;;5.32;4.82;;;;;;;28.54;69.31;102461.06;5248127;28;20116;-71
2022/07/12 10:14:48;;;;;;;;;;;;;;;28.24;70.02;102461.28;5267718;28;20111;-71
2022/07/12 10:17:34;;;;;;;6.00;5.40;;;;;;;28.60;71.42;102457.31;5253493;28;19930;-71
2022/07/12 10:20:19;;;;;;;6.72;5.00;;;;;;;28.75;68.44;102469.72;5259655;28;20025;-71
2022/07/12 10:23:20;;;;;;;6.78;4.53;;;;;;;28.92;68.13;102470.59;5246085;28;20104;-71
2022/07/12 10:25:50;;;;;;;5.30;4.72;;;;;;;28.70;66.98;102459.41;5253613;28;20118;-71
2022/07/12 10:28:20;;;;;;;4.93;4.43;;;;;;;28.69;66.45;102463.28;5252697;28;20394;-71
2022/07/12 10:30:52;;;;;;;6.03;5.18;;;;;;;28.94;64.50;102462.03;5258432;28;20024;-71
2022/07/12 10:33:23;;;;;;;6.15;4.60;;;;;;;29.42;65.04;102467.00;5245837;28;20497;-71
2022/07/12 10:36:13;;;;;;;7.00;5.25;;;;;;;29.35;62.53;102461.63;5245933;28;20389;-71
2022/07/12 10:39:33;;;;;;;4.80;4.32;;;;;;;29.45;64.13;102466.47;5246114;28;20515;-71
2022/07/12 10:42:05;;;;;;;5.75;4.80;;;;;;;29.62;64.69;102466.44;5240171;28;20062;-71
2022/07/12 10:44:37;;;;;;;5.35;4.70;;;;;;;29.71;64.28;102467.69;5264957;28;20035;-71
2022/07/12 10:47:08;;;;;;;4.85;4.45;;;;;;;29.49;63.80;102464.88;5239278;28;20107;-71
2022/07/12 10:49:46;;;;;;;4.97;4.40;;;;;;;29.26;64.94;102459.53;5245955;28;20103;-71
2022/07/12 10:52:23;;;;;;;5.82;4.78;;;;;;;28.72;65.96;102457.25;5266644;28;20024;-71
2022/07/12 10:54:54;;;;;;;6.07;4.88;;;;;;;28.53;67.86;102448.34;5246162;28;20028;-71
2022/07/12 10:57:45;;;;;;;9.00;4.70;;;;;;;28.47;69.54;102445.75;5245065;28;20100;-71
2022/07/12 11:00:16;;;;;;;7.47;4.88;;;;;;;28.58;69.47;102437.41;5245831;28;20024;-71
2022/07/12 11:02:46;;;;;;;5.28;4.35;;;;;;;28.81;67.40;102438.34;5255107;28;20047;-71
2022/07/12 11:05:25;;;;;;;5.15;4.38;;;;;;;28.49;63.13;102438.06;5236595;28;20078;-71
2022/07/12 11:07:55;;;;;;;4.88;3.78;;;;;;;28.23;64.37;102426.50;5265671;28;20020;-73
2022/07/12 11:10:26;;;;;;;4.40;3.78;;;;;;;28.56;66.79;102428.50;5252478;28;20105;-71
2022/07/12 11:12:56;;;;;;;4.53;4.13;;;;;;;28.60;64.84;102426.94;5245533;28;20074;-71
2022/07/12 11:15:27;;;;;;;4.80;4.32;;;;;;;28.86;64.00;102422.69;5245372;28;20039;-71
2022/07/12 11:17:57;;;;;;;7.28;4.38;;;;;;;28.73;64.16;102424.97;5254488;28;20498;-71
2022/07/12 11:20:28;;;;;;;4.38;3.88;;;;;;;28.41;64.18;102425.47;5249300;28;20035;-72
2022/07/12 11:22:59;;;;;;;5.90;3.72;;;;;;;28.60;62.40;102426.09;5256201;28;20470;-71
2022/07/12 11:25:30;;;;;;;4.97;3.45;;;;;;;28.51;61.20;102422.06;5266154;28;20035;-71
2022/07/12 11:28:01;;;;;;;5.03;3.80;;;;;;;28.74;63.15;102421.09;5254278;28;20020;-71
2022/07/12 11:30:31;;;;;;;6.78;3.80;;;;;;;28.81;63.55;102421.75;5245046;28;20032;-71
2022/07/12 11:33:02;;;;;;;9.80;3.92;;;;;;;29.05;61.48;102414.19;5245232;28;20115;-71
2022/07/12 11:35:32;;;;;;;8.07;3.65;;;;;;;29.05;59.89;102412.25;5252183;28;20079;-71
2022/07/12 11:38:03;;;;;;;7.88;4.38;;;;;;;28.98;59.81;102403.31;5251865;28;20543;-71
2022/07/12 11:40:34;;;;;;;3.92;3.63;;;;;;;28.93;58.88;102408.72;5253672;28;20380;-71
2022/07/12 11:43:05;;;;;;;4.82;3.58;;;;;;;28.63;60.00;102398.84;5254048;28;20029;-71
2022/07/12 11:45:35;;;;;;;3.58;3.20;;;;;;;29.00;61.51;102397.53;5249601;28;20035;-71